createdAt,value
2019-03-25T00:01:08.671Z,100279.63
2019-03-25T00:03:38.746Z,100272.53
2019-03-25T00:06:08.743Z,100267.50
2019-03-25T00:08:38.760Z,100271.55
2019-03-25T00:11:08.849Z,100267.50
2019-03-25T00:13:38.873Z,100270.69
2019-03-25T00:16:08.845Z,100267.50
2019-03-25T00:18:39.013Z,100262.11
2019-03-25T00:21:09.894Z,100263.45
2019-03-25T00:23:39.892Z,100260.76
2019-03-25T00:26:09.925Z,100258.06
2019-03-25T00:28:39.946Z,100266.64
2019-03-25T00:31:09.944Z,100268.00
2019-03-25T00:33:39.975Z,100267.14
2019-03-25T00:36:10.099Z,100273.52
2019-03-25T00:38:40.139Z,100270.34
2019-03-25T00:41:10.351Z,100269.48
2019-03-25T00:43:40.385Z,100252.48
2019-03-25T00:46:11.352Z,100250.28
2019-03-25T00:48:41.359Z,100259.72
2019-03-25T00:51:11.456Z,100265.60
2019-03-25T00:53:41.604Z,100255.31
2019-03-25T00:56:11.601Z,100255.31
2019-03-25T00:58:41.608Z,100252.62
2019-03-25T01:01:11.653Z,100246.37
2019-03-25T01:03:41.647Z,100240.30
2019-03-25T01:06:11.956Z,100247.70
2019-03-25T01:08:42.013Z,100248.19
2019-03-25T01:11:12.008Z,100251.05
2019-03-25T01:13:42.026Z,100241.75
2019-03-25T01:16:12.032Z,100239.59
2019-03-25T01:18:42.101Z,100238.56
2019-03-25T01:21:12.144Z,100235.02
2019-03-25T01:23:42.164Z,100230.28
2019-03-25T01:26:12.173Z,100232.79
2019-03-25T01:28:42.269Z,100234.99
2019-03-25T01:31:12.246Z,100235.48
2019-03-25T01:33:43.191Z,100233.28
2019-03-25T01:36:13.272Z,100244.07
2019-03-25T01:38:43.304Z,100244.07
2019-03-25T01:41:13.375Z,100246.77
2019-03-25T01:43:43.443Z,100244.07
2019-03-25T01:46:13.503Z,100240.02
2019-03-25T01:48:43.624Z,100238.19
2019-03-25T01:51:13.680Z,100241.23
2019-03-25T01:53:43.689Z,100236.34
2019-03-25T01:56:13.831Z,100235.34
2019-03-25T01:58:43.830Z,100239.72
2019-03-25T02:01:15.076Z,100233.34
2019-03-25T02:03:45.105Z,100230.15
2019-03-25T02:06:15.105Z,100231.99
2019-03-25T02:08:45.200Z,100236.36
2019-03-25T02:11:15.189Z,100235.02
2019-03-25T02:13:45.258Z,100239.91
2019-03-25T02:16:15.245Z,100230.48
2019-03-25T02:18:45.318Z,100223.91
2019-03-25T02:21:15.428Z,100229.63
2019-03-25T02:23:45.425Z,100230.64
2019-03-25T02:26:15.410Z,100234.69
2019-03-25T02:28:45.512Z,100231.14
2019-03-25T02:31:15.595Z,100226.41
2019-03-25T02:33:45.579Z,100227.76
2019-03-25T02:36:15.675Z,100227.89
2019-03-25T02:38:45.671Z,100232.95
2019-03-25T02:41:18.675Z,100225.86
2019-03-25T02:43:47.535Z,100225.50
2019-03-25T02:46:17.630Z,100221.32
2019-03-25T02:48:47.786Z,100225.86
2019-03-25T02:51:17.770Z,100222.31
2019-03-25T02:53:47.760Z,100228.20
2019-03-25T02:56:17.784Z,100235.66
2019-03-25T18:29:19.984Z,100937.19
2019-03-25T18:31:50.162Z,100932.88
2019-03-25T18:34:20.319Z,100932.93
2019-03-25T18:36:50.367Z,100927.91
2019-03-25T18:39:20.466Z,100922.50
2019-03-25T18:41:50.615Z,100925.57
2019-03-25T18:44:20.860Z,100925.91
2019-03-25T18:46:51.045Z,100925.27
2019-03-25T18:49:21.138Z,100915.33
2019-03-25T18:51:52.421Z,100912.63
2019-03-25T18:54:22.524Z,100915.33
2019-03-25T18:56:52.726Z,100920.59
2019-03-25T18:59:24.543Z,100913.20
2019-03-25T19:01:55.012Z,100911.20
2019-03-25T19:04:27.317Z,100908.59
2019-03-25T19:06:57.488Z,100907.95
2019-03-25T19:09:27.758Z,100904.59
2019-03-25T19:11:57.907Z,100903.83
2019-03-25T19:14:28.024Z,100900.61
2019-03-25T19:16:58.467Z,100907.07
2019-03-25T19:19:28.698Z,100909.16
2019-03-25T19:21:58.917Z,100910.72
2019-03-25T19:24:29.088Z,100913.25
2019-03-25T19:26:59.179Z,100914.33
2019-03-25T19:29:29.373Z,100914.04
2019-03-25T19:32:06.674Z,100903.78
2019-03-25T19:34:31.818Z,100917.86
2019-03-25T19:37:01.990Z,100922.12
2019-03-25T19:39:32.073Z,100909.39
2019-03-25T19:42:02.137Z,100915.78
2019-03-25T19:44:32.301Z,100913.86
2019-03-25T19:47:02.553Z,100911.39
2019-03-25T19:49:32.767Z,100905.99
2019-03-25T19:52:02.932Z,100892.48
2019-03-25T19:54:32.998Z,100899.08
2019-03-25T19:57:03.146Z,100900.10
2019-03-25T19:59:33.286Z,100894.33
2019-03-25T20:02:03.336Z,100896.17
2019-03-25T20:04:33.480Z,100900.36
2019-03-25T20:07:03.650Z,100899.78
2019-03-25T20:09:33.716Z,100892.45
2019-03-25T20:12:03.819Z,100888.72
2019-03-25T20:14:33.875Z,100889.50
2019-03-25T20:17:04.019Z,100891.14
2019-03-25T20:19:34.069Z,100884.67
2019-03-25T20:22:04.184Z,100886.18
2019-03-25T20:24:34.352Z,100881.92
2019-03-25T20:27:04.366Z,100876.16
2019-03-25T20:29:34.545Z,100877.66
2019-03-25T20:32:04.658Z,100875.45
2019-03-25T20:34:37.635Z,100873.41
2019-03-25T20:37:07.279Z,100864.94
2019-03-25T20:39:37.419Z,100863.26
2019-03-25T20:42:07.466Z,100852.59
2019-03-25T20:44:37.570Z,100859.83
2019-03-25T20:47:11.971Z,100857.28
2019-03-25T20:49:42.103Z,100860.48
2019-03-25T20:52:12.262Z,100857.41
2019-03-25T20:54:42.534Z,100845.05
2019-03-25T20:57:12.643Z,100841.66
2019-03-25T20:59:42.761Z,100841.81
2019-03-25T21:02:13.100Z,100849.42
2019-03-25T21:04:43.164Z,100848.90
2019-03-25T21:07:13.446Z,100844.72
2019-03-25T21:09:43.680Z,100834.13
2019-03-25T21:12:13.844Z,100826.89
2019-03-25T21:14:43.971Z,100813.03
2019-03-25T21:17:14.031Z,100816.37
2019-03-25T21:19:44.156Z,100814.33
2019-03-25T21:22:14.289Z,100805.70
2019-03-25T21:24:44.450Z,100801.81
2019-03-25T21:27:14.506Z,100801.61
2019-03-25T21:29:44.723Z,100799.89
2019-03-25T21:32:14.816Z,100791.47
2019-03-25T21:34:44.984Z,100797.84
2019-03-25T21:37:15.250Z,100783.66
2019-03-25T21:39:45.360Z,100780.09
2019-03-25T21:42:15.519Z,100775.56
2019-03-25T21:44:45.569Z,100772.36
2019-03-25T21:47:15.780Z,100769.30
2019-03-25T21:49:45.789Z,100770.16
2019-03-25T21:52:15.954Z,100765.25
2019-03-25T21:54:46.098Z,100763.91
2019-03-25T21:57:16.231Z,100756.66
2019-03-25T21:59:46.517Z,100752.25
2019-03-25T22:02:16.602Z,100752.25
2019-03-25T22:04:46.749Z,100752.74
2019-03-25T22:07:16.828Z,100754.09
2019-03-25T22:09:47.940Z,100744.31
2019-03-25T22:12:18.484Z,100740.27
2019-03-25T22:14:48.574Z,100729.97
2019-03-25T22:17:18.722Z,100729.97
2019-03-25T22:19:48.766Z,100728.78
2019-03-25T22:22:18.844Z,100723.88
2019-03-25T22:24:48.933Z,100715.41
2019-03-25T22:27:18.984Z,100710.51
2019-03-25T22:29:49.046Z,100706.98
2019-03-25T22:32:19.181Z,100700.73
2019-03-25T22:34:49.213Z,100697.67
2019-03-25T22:37:19.221Z,100695.45
2019-03-25T22:39:49.382Z,100685.19
2019-03-25T22:42:19.420Z,100686.17
2019-03-25T22:44:49.577Z,100680.78
2019-03-25T22:47:19.654Z,100678.20
2019-03-25T22:49:49.815Z,100664.72
2019-03-25T22:52:19.894Z,100667.41
2019-03-25T22:54:49.950Z,100661.20
2019-03-25T22:57:20.004Z,100660.67
2019-03-25T22:59:50.108Z,100651.39
2019-03-25T23:02:20.190Z,100647.83
2019-03-25T23:04:50.281Z,100649.18
2019-03-25T23:07:20.359Z,100634.50
2019-03-25T23:09:50.415Z,100638.16
2019-03-25T23:12:20.454Z,100627.52
2019-03-25T23:14:50.512Z,100629.20
2019-03-25T23:17:20.523Z,100625.16
2019-03-25T23:19:50.552Z,100622.45
2019-03-25T23:22:20.705Z,100616.73
2019-03-25T23:24:50.699Z,100614.53
2019-03-25T23:27:20.736Z,100603.73
2019-03-25T23:29:50.784Z,100604.59
2019-03-25T23:32:20.926Z,100602.02
2019-03-25T23:34:51.138Z,100600.54
2019-03-25T23:37:21.152Z,100602.38
2019-03-25T23:39:51.200Z,100589.39
2019-03-25T23:42:21.240Z,100585.34
2019-03-25T23:44:51.331Z,100575.05
2019-03-25T23:47:21.329Z,100568.45
2019-03-25T23:49:52.428Z,100561.55
2019-03-25T23:52:22.436Z,100552.31
2019-03-25T23:54:52.634Z,100549.77
2019-03-25T23:57:22.727Z,100546.72
2019-03-25T23:59:52.794Z,100545.03
